sensor_id;sensor_type;location;lat;lon;timestamp;pressure;altitude;pressure_sealevel;temperature;humidity
69306;BME280;56427;51.580;4.656;2023-04-27T00:00:55;102076.75;;;3.63;100.00
69306;BME280;56427;51.580;4.656;2023-04-27T00:03:21;102083.19;;;3.75;100.00
69306;BME280;56427;51.580;4.656;2023-04-27T00:05:46;102087.63;;;3.69;100.00
69306;BME280;56427;51.580;4.656;2023-04-27T00:08:12;102092.28;;;3.85;100.00
69306;BME280;56427;51.580;4.656;2023-04-27T00:10:37;102081.13;;;3.84;100.00
69306;BME280;56427;51.580;4.656;2023-04-27T00:13:02;102082.66;;;3.65;100.00
69306;BME280;56427;51.580;4.656;2023-04-27T00:15:28;102089.16;;;3.50;100.00
69306;BME280;56427;51.580;4.656;2023-04-27T00:17:54;102090.00;;;3.50;100.00
69306;BME280;56427;51.580;4.656;2023-04-27T00:20:19;102089.41;;;3.42;100.00
69306;BME280;56427;51.580;4.656;2023-04-27T00:22:47;102097.66;;;3.25;100.00
69306;BME280;56427;51.580;4.656;2023-04-27T00:25:12;102097.41;;;3.33;100.00
69306;BME280;56427;51.580;4.656;2023-04-27T00:27:38;102088.84;;;3.34;100.00
69306;BME280;56427;51.580;4.656;2023-04-27T00:30:04;102084.81;;;3.25;100.00
69306;BME280;56427;51.580;4.656;2023-04-27T00:32:29;102090.44;;;3.10;100.00
69306;BME280;56427;51.580;4.656;2023-04-27T00:34:55;102087.88;;;3.10;100.00
69306;BME280;56427;51.580;4.656;2023-04-27T00:37:20;102079.50;;;3.05;100.00
69306;BME280;56427;51.580;4.656;2023-04-27T00:39:45;102078.53;;;3.07;100.00
69306;BME280;56427;51.580;4.656;2023-04-27T00:42:11;102073.81;;;3.22;100.00
69306;BME280;56427;51.580;4.656;2023-04-27T00:44:39;102075.56;;;3.21;100.00
69306;BME280;56427;51.580;4.656;2023-04-27T00:47:05;102076.03;;;3.06;100.00
69306;BME280;56427;51.580;4.656;2023-04-27T00:49:31;102082.38;;;2.94;100.00
69306;BME280;56427;51.580;4.656;2023-04-27T00:51:56;102078.31;;;2.88;100.00
69306;BME280;56427;51.580;4.656;2023-04-27T00:54:22;102071.47;;;2.87;100.00
69306;BME280;56427;51.580;4.656;2023-04-27T00:56:51;102071.94;;;3.00;100.00
69306;BME280;56427;51.580;4.656;2023-04-27T00:59:18;102073.88;;;2.93;100.00
69306;BME280;56427;51.580;4.656;2023-04-27T01:01:47;102079.91;;;2.91;100.00
69306;BME280;56427;51.580;4.656;2023-04-27T01:04:13;102074.09;;;2.86;100.00
69306;BME280;56427;51.580;4.656;2023-04-27T01:06:38;102075.91;;;2.82;100.00
69306;BME280;56427;51.580;4.656;2023-04-27T01:09:04;102078.56;;;2.79;100.00
69306;BME280;56427;51.580;4.656;2023-04-27T01:11:31;102068.03;;;2.88;100.00
69306;BME280;56427;51.580;4.656;2023-04-27T01:13:57;102068.69;;;2.95;100.00
69306;BME280;56427;51.580;4.656;2023-04-27T01:16:25;102072.25;;;2.89;100.00
69306;BME280;56427;51.580;4.656;2023-04-27T01:18:51;102072.16;;;2.92;100.00
69306;BME280;56427;51.580;4.656;2023-04-27T01:21:16;102070.25;;;2.99;100.00
69306;BME280;56427;51.580;4.656;2023-04-27T01:23:42;102068.25;;;3.09;100.00
69306;BME280;56427;51.580;4.656;2023-04-27T01:26:07;102064.28;;;2.99;100.00
69306;BME280;56427;51.580;4.656;2023-04-27T01:28:32;102066.50;;;2.83;100.00
69306;BME280;56427;51.580;4.656;2023-04-27T01:30:58;102064.13;;;2.76;100.00
69306;BME280;56427;51.580;4.656;2023-04-27T01:33:23;102059.94;;;2.74;100.00
69306;BME280;56427;51.580;4.656;2023-04-27T01:35:48;102063.78;;;2.59;100.00
69306;BME280;56427;51.580;4.656;2023-04-27T01:38:14;102056.06;;;2.61;100.00
69306;BME280;56427;51.580;4.656;2023-04-27T01:40:39;102056.34;;;2.80;100.00
69306;BME280;56427;51.580;4.656;2023-04-27T01:43:04;102060.44;;;2.85;100.00
69306;BME280;56427;51.580;4.656;2023-04-27T01:45:30;102056.22;;;2.83;100.00
69306;BME280;56427;51.580;4.656;2023-04-27T01:47:55;102054.19;;;2.94;100.00
69306;BME280;56427;51.580;4.656;2023-04-27T01:50:21;102054.47;;;2.85;100.00
69306;BME280;56427;51.580;4.656;2023-04-27T01:52:46;102052.88;;;2.81;100.00
69306;BME280;56427;51.580;4.656;2023-04-27T01:55:12;102049.59;;;2.77;100.00
69306;BME280;56427;51.580;4.656;2023-04-27T01:57:37;102044.03;;;2.63;100.00
69306;BME280;56427;51.580;4.656;2023-04-27T02:00:03;102039.19;;;2.53;100.00
69306;BME280;56427;51.580;4.656;2023-04-27T02:02:29;102049.63;;;2.47;100.00
69306;BME280;56427;51.580;4.656;2023-04-27T02:04:55;102038.78;;;2.39;100.00
69306;BME280;56427;51.580;4.656;2023-04-27T02:07:20;102037.97;;;2.37;100.00
69306;BME280;56427;51.580;4.656;2023-04-27T02:09:45;102030.34;;;2.35;100.00
69306;BME280;56427;51.580;4.656;2023-04-27T02:12:11;102033.16;;;2.26;100.00
69306;BME280;56427;51.580;4.656;2023-04-27T02:14:36;102038.41;;;2.21;100.00
69306;BME280;56427;51.580;4.656;2023-04-27T02:17:01;102039.31;;;2.20;100.00
69306;BME280;56427;51.580;4.656;2023-04-27T02:19:27;102034.22;;;2.19;100.00
69306;BME280;56427;51.580;4.656;2023-04-27T02:21:53;102030.47;;;2.31;100.00
69306;BME280;56427;51.580;4.656;2023-04-27T02:24:18;102031.34;;;2.30;100.00
69306;BME280;56427;51.580;4.656;2023-04-27T02:26:43;102032.28;;;2.27;100.00
69306;BME280;56427;51.580;4.656;2023-04-27T02:29:09;102032.38;;;2.24;100.00
69306;BME280;56427;51.580;4.656;2023-04-27T02:31:34;102031.00;;;2.12;100.00
69306;BME280;56427;51.580;4.656;2023-04-27T02:33:59;102026.16;;;2.01;100.00
69306;BME280;56427;51.580;4.656;2023-04-27T02:36:25;102038.91;;;2.05;100.00
69306;BME280;56427;51.580;4.656;2023-04-27T02:38:52;102027.78;;;2.06;100.00
69306;BME280;56427;51.580;4.656;2023-04-27T02:41:17;102023.44;;;2.08;100.00
69306;BME280;56427;51.580;4.656;2023-04-27T02:43:42;102026.06;;;2.06;100.00
69306;BME280;56427;51.580;4.656;2023-04-27T02:46:08;102033.00;;;2.02;100.00
69306;BME280;56427;51.580;4.656;2023-04-27T02:48:33;102026.63;;;2.16;100.00
69306;BME280;56427;51.580;4.656;2023-04-27T02:51:02;102025.72;;;2.17;100.00
69306;BME280;56427;51.580;4.656;2023-04-27T02:53:28;102033.72;;;2.06;100.00
69306;BME280;56427;51.580;4.656;2023-04-27T02:55:53;102025.31;;;2.02;100.00
69306;BME280;56427;51.580;4.656;2023-04-27T02:58:18;102023.03;;;1.92;100.00
69306;BME280;56427;51.580;4.656;2023-04-27T03:00:44;102028.16;;;1.92;100.00
69306;BME280;56427;51.580;4.656;2023-04-27T03:03:09;102023.06;;;1.90;100.00
69306;BME280;56427;51.580;4.656;2023-04-27T03:05:35;102019.47;;;1.97;100.00
69306;BME280;56427;51.580;4.656;2023-04-27T03:08:01;102014.56;;;1.90;100.00
69306;BME280;56427;51.580;4.656;2023-04-27T03:10:26;102027.19;;;1.96;100.00
69306;BME280;56427;51.580;4.656;2023-04-27T03:12:52;102022.19;;;1.91;100.00
69306;BME280;56427;51.580;4.656;2023-04-27T03:15:17;102025.44;;;1.98;100.00
69306;BME280;56427;51.580;4.656;2023-04-27T03:17:42;102026.16;;;2.01;100.00
69306;BME280;56427;51.580;4.656;2023-04-27T03:20:08;102028.94;;;1.94;100.00
69306;BME280;56427;51.580;4.656;2023-04-27T03:22:37;102032.56;;;1.87;100.00
69306;BME280;56427;51.580;4.656;2023-04-27T03:25:02;102029.22;;;1.84;100.00
69306;BME280;56427;51.580;4.656;2023-04-27T03:27:28;102027.09;;;1.99;100.00
69306;BME280;56427;51.580;4.656;2023-04-27T03:29:53;102035.72;;;1.96;100.00
69306;BME280;56427;51.580;4.656;2023-04-27T03:32:19;102033.81;;;2.03;100.00
69306;BME280;56427;51.580;4.656;2023-04-27T03:34:44;102038.66;;;2.14;100.00
69306;BME280;56427;51.580;4.656;2023-04-27T03:37:09;102041.47;;;2.05;100.00
69306;BME280;56427;51.580;4.656;2023-04-27T03:39:35;102037.53;;;1.93;100.00
69306;BME280;56427;51.580;4.656;2023-04-27T03:42:00;102042.63;;;1.93;100.00
69306;BME280;56427;51.580;4.656;2023-04-27T03:44:26;102042.13;;;1.80;100.00
69306;BME280;56427;51.580;4.656;2023-04-27T03:46:52;102037.88;;;1.79;100.00
69306;BME280;56427;51.580;4.656;2023-04-27T03:49:17;102041.97;;;1.86;100.00
69306;BME280;56427;51.580;4.656;2023-04-27T03:51:42;102037.53;;;1.93;100.00
69306;BME280;56427;51.580;4.656;2023-04-27T03:54:08;102044.25;;;1.95;100.00
69306;BME280;56427;51.580;4.656;2023-04-27T03:56:34;102042.72;;;1.90;100.00
69306;BME280;56427;51.580;4.656;2023-04-27T03:59:00;102044.25;;;1.95;100.00
69306;BME280;56427;51.580;4.656;2023-04-27T04:01:25;102043.28;;;2.01;100.00
69306;BME280;56427;51.580;4.656;2023-04-27T04:03:50;102048.25;;;2.06;100.00
69306;BME280;56427;51.580;4.656;2023-04-27T04:06:16;102048.00;;;2.15;100.00
69306;BME280;56427;51.580;4.656;2023-04-27T04:08:41;102050.13;;;1.99;100.00
69306;BME280;56427;51.580;4.656;2023-04-27T04:11:07;102048.19;;;2.07;100.00
69306;BME280;56427;51.580;4.656;2023-04-27T04:13:32;102051.63;;;2.08;100.00
69306;BME280;56427;51.580;4.656;2023-04-27T04:16:03;102051.28;;;2.18;100.00
69306;BME280;56427;51.580;4.656;2023-04-27T04:18:29;102050.56;;;2.15;100.00
69306;BME280;56427;51.580;4.656;2023-04-27T04:20:54;102046.78;;;1.97;100.00
69306;BME280;56427;51.580;4.656;2023-04-27T04:23:20;102046.00;;;1.95;100.00
69306;BME280;56427;51.580;4.656;2023-04-27T04:25:45;102053.13;;;1.83;100.00
69306;BME280;56427;51.580;4.656;2023-04-27T04:28:12;102055.25;;;1.99;100.00
69306;BME280;56427;51.580;4.656;2023-04-27T04:30:37;102054.34;;;2.01;100.00
69306;BME280;56427;51.580;4.656;2023-04-27T04:33:03;102057.25;;;1.89;100.00
69306;BME280;56427;51.580;4.656;2023-04-27T04:35:29;102058.19;;;2.16;100.00
69306;BME280;56427;51.580;4.656;2023-04-27T04:37:57;102064.47;;;2.06;100.00
69306;BME280;56427;51.580;4.656;2023-04-27T04:40:22;102069.84;;;2.56;100.00
69306;BME280;56427;51.580;4.656;2023-04-27T04:42:48;102072.66;;;2.49;100.00
69306;BME280;56427;51.580;4.656;2023-04-27T04:45:14;102081.84;;;3.12;100.00
69306;BME280;56427;51.580;4.656;2023-04-27T04:47:39;102077.56;;;3.63;100.00
69306;BME280;56427;51.580;4.656;2023-04-27T04:50:06;102079.84;;;4.21;100.00
69306;BME280;56427;51.580;4.656;2023-04-27T04:52:32;102066.19;;;4.65;100.00
69306;BME280;56427;51.580;4.656;2023-04-27T04:54:58;102065.84;;;4.29;100.00
69306;BME280;56427;51.580;4.656;2023-04-27T04:57:23;102066.19;;;3.96;100.00
69306;BME280;56427;51.580;4.656;2023-04-27T04:59:49;102061.69;;;4.26;100.00
69306;BME280;56427;51.580;4.656;2023-04-27T05:02:14;102067.78;;;4.46;100.00
69306;BME280;56427;51.580;4.656;2023-04-27T05:04:40;102087.50;;;3.98;100.00
69306;BME280;56427;51.580;4.656;2023-04-27T05:07:05;102074.59;;;4.24;100.00
69306;BME280;56427;51.580;4.656;2023-04-27T05:09:30;102068.19;;;4.81;100.00
69306;BME280;56427;51.580;4.656;2023-04-27T05:11:56;102079.38;;;4.57;100.00
69306;BME280;56427;51.580;4.656;2023-04-27T05:14:21;102081.50;;;4.22;100.00
69306;BME280;56427;51.580;4.656;2023-04-27T05:16:46;102076.03;;;4.32;100.00
69306;BME280;56427;51.580;4.656;2023-04-27T05:19:13;102079.72;;;4.48;100.00
69306;BME280;56427;51.580;4.656;2023-04-27T05:21:43;102078.97;;;5.33;100.00
69306;BME280;56427;51.580;4.656;2023-04-27T05:24:10;102071.78;;;6.22;100.00
69306;BME280;56427;51.580;4.656;2023-04-27T05:26:36;102075.56;;;6.13;100.00
69306;BME280;56427;51.580;4.656;2023-04-27T05:29:02;102078.97;;;5.74;100.00
69306;BME280;56427;51.580;4.656;2023-04-27T05:31:27;102075.38;;;5.99;100.00
69306;BME280;56427;51.580;4.656;2023-04-27T05:33:53;102073.31;;;6.45;100.00
69306;BME280;56427;51.580;4.656;2023-04-27T05:36:18;102077.41;;;6.68;100.00
69306;BME280;56427;51.580;4.656;2023-04-27T05:38:43;102075.00;;;8.53;100.00
69306;BME280;56427;51.580;4.656;2023-04-27T05:41:09;102071.81;;;8.79;100.00
69306;BME280;56427;51.580;4.656;2023-04-27T05:43:34;102079.97;;;8.40;100.00
69306;BME280;56427;51.580;4.656;2023-04-27T05:46:01;102090.84;;;7.97;100.00
69306;BME280;56427;51.580;4.656;2023-04-27T05:48:26;102087.63;;;8.59;100.00
69306;BME280;56427;51.580;4.656;2023-04-27T05:51:02;102089.09;;;9.99;100.00
69306;BME280;56427;51.580;4.656;2023-04-27T05:53:28;102087.34;;;9.70;100.00
69306;BME280;56427;51.580;4.656;2023-04-27T05:55:54;102089.31;;;9.36;100.00
69306;BME280;56427;51.580;4.656;2023-04-27T05:58:20;102088.84;;;8.52;100.00
69306;BME280;56427;51.580;4.656;2023-04-27T06:00:46;102091.00;;;9.37;100.00
69306;BME280;56427;51.580;4.656;2023-04-27T06:03:11;102085.63;;;8.64;100.00
69306;BME280;56427;51.580;4.656;2023-04-27T06:05:37;102090.50;;;7.87;100.00
69306;BME280;56427;51.580;4.656;2023-04-27T06:08:02;102087.50;;;8.92;100.00
69306;BME280;56427;51.580;4.656;2023-04-27T06:10:27;102093.72;;;8.74;100.00
69306;BME280;56427;51.580;4.656;2023-04-27T06:12:53;102088.19;;;9.26;100.00
69306;BME280;56427;51.580;4.656;2023-04-27T06:15:18;102094.16;;;9.43;100.00
69306;BME280;56427;51.580;4.656;2023-04-27T06:17:44;102094.91;;;9.73;100.00
69306;BME280;56427;51.580;4.656;2023-04-27T06:20:10;102089.19;;;9.54;100.00
69306;BME280;56427;51.580;4.656;2023-04-27T06:22:36;102087.91;;;9.00;100.00
69306;BME280;56427;51.580;4.656;2023-04-27T06:25:03;102083.06;;;8.94;100.00
69306;BME280;56427;51.580;4.656;2023-04-27T06:27:28;102088.06;;;8.97;100.00
69306;BME280;56427;51.580;4.656;2023-04-27T06:29:54;102082.50;;;8.89;100.00
69306;BME280;56427;51.580;4.656;2023-04-27T06:32:19;102076.72;;;8.36;100.00
69306;BME280;56427;51.580;4.656;2023-04-27T06:34:45;102078.22;;;7.91;100.00
69306;BME280;56427;51.580;4.656;2023-04-27T06:37:11;102071.41;;;9.17;100.00
69306;BME280;56427;51.580;4.656;2023-04-27T06:39:36;102082.53;;;8.24;100.00
69306;BME280;56427;51.580;4.656;2023-04-27T06:42:02;102074.72;;;8.25;100.00
69306;BME280;56427;51.580;4.656;2023-04-27T06:44:30;102079.25;;;9.16;100.00
69306;BME280;56427;51.580;4.656;2023-04-27T06:46:55;102086.34;;;10.02;100.00
69306;BME280;56427;51.580;4.656;2023-04-27T06:49:21;102083.25;;;8.27;100.00
69306;BME280;56427;51.580;4.656;2023-04-27T06:51:47;102076.31;;;8.92;100.00
69306;BME280;56427;51.580;4.656;2023-04-27T06:54:12;102086.00;;;9.49;100.00
69306;BME280;56427;51.580;4.656;2023-04-27T06:56:38;102075.38;;;10.11;100.00
69306;BME280;56427;51.580;4.656;2023-04-27T06:59:03;102082.88;;;10.44;100.00
69306;BME280;56427;51.580;4.656;2023-04-27T07:01:29;102075.97;;;10.02;100.00
69306;BME280;56427;51.580;4.656;2023-04-27T07:03:54;102081.19;;;9.43;97.35
69306;BME280;56427;51.580;4.656;2023-04-27T07:06:21;102083.44;;;9.77;100.00
69306;BME280;56427;51.580;4.656;2023-04-27T07:08:47;102080.53;;;9.09;100.00
69306;BME280;56427;51.580;4.656;2023-04-27T07:11:12;102082.34;;;9.96;100.00
69306;BME280;56427;51.580;4.656;2023-04-27T07:13:38;102082.56;;;9.48;100.00
69306;BME280;56427;51.580;4.656;2023-04-27T07:16:03;102082.34;;;9.67;99.48
69306;BME280;56427;51.580;4.656;2023-04-27T07:18:29;102079.72;;;10.39;97.13
69306;BME280;56427;51.580;4.656;2023-04-27T07:20:54;102086.22;;;10.46;98.66
69306;BME280;56427;51.580;4.656;2023-04-27T07:23:22;102078.38;;;11.54;93.58
69306;BME280;56427;51.580;4.656;2023-04-27T07:25:48;102083.88;;;11.23;93.08
69306;BME280;56427;51.580;4.656;2023-04-27T07:28:13;102085.16;;;11.03;90.46
69306;BME280;56427;51.580;4.656;2023-04-27T07:30:39;102080.78;;;11.70;93.56
69306;BME280;56427;51.580;4.656;2023-04-27T07:33:06;102086.28;;;12.17;88.32
69306;BME280;56427;51.580;4.656;2023-04-27T07:35:31;102080.38;;;11.50;89.90
69306;BME280;56427;51.580;4.656;2023-04-27T07:37:57;102080.31;;;12.27;86.83
69306;BME280;56427;51.580;4.656;2023-04-27T07:40:22;102080.66;;;12.10;85.82
69306;BME280;56427;51.580;4.656;2023-04-27T07:42:48;102079.06;;;12.33;82.64
69306;BME280;56427;51.580;4.656;2023-04-27T07:45:14;102078.19;;;12.69;81.81
69306;BME280;56427;51.580;4.656;2023-04-27T07:47:41;102080.06;;;12.06;81.43
69306;BME280;56427;51.580;4.656;2023-04-27T07:50:08;102079.09;;;12.93;84.94
69306;BME280;56427;51.580;4.656;2023-04-27T07:52:34;102083.63;;;12.66;80.53
69306;BME280;56427;51.580;4.656;2023-04-27T07:55:00;102082.56;;;12.69;76.60
69306;BME280;56427;51.580;4.656;2023-04-27T07:57:26;102089.31;;;12.47;78.71
69306;BME280;56427;51.580;4.656;2023-04-27T07:59:51;102079.31;;;13.49;76.42
69306;BME280;56427;51.580;4.656;2023-04-27T08:02:17;102074.91;;;13.03;77.11
69306;BME280;56427;51.580;4.656;2023-04-27T08:04:42;102072.00;;;13.30;75.99
69306;BME280;56427;51.580;4.656;2023-04-27T08:07:08;102060.72;;;13.18;74.96
69306;BME280;56427;51.580;4.656;2023-04-27T08:09:33;102056.50;;;12.21;72.17
69306;BME280;56427;51.580;4.656;2023-04-27T08:11:58;102052.72;;;12.25;75.32
69306;BME280;56427;51.580;4.656;2023-04-27T08:14:24;102057.69;;;12.65;77.99
69306;BME280;56427;51.580;4.656;2023-04-27T08:16:49;102055.03;;;12.17;77.51
69306;BME280;56427;51.580;4.656;2023-04-27T08:19:16;102059.88;;;11.58;78.97
69306;BME280;56427;51.580;4.656;2023-04-27T08:21:42;102069.44;;;11.71;75.28
69306;BME280;56427;51.580;4.656;2023-04-27T08:24:10;102068.41;;;11.99;75.36
69306;BME280;56427;51.580;4.656;2023-04-27T08:26:35;102060.59;;;11.60;78.86
69306;BME280;56427;51.580;4.656;2023-04-27T08:29:01;102059.03;;;10.79;79.50
69306;BME280;56427;51.580;4.656;2023-04-27T08:31:27;102045.41;;;13.14;79.32
69306;BME280;56427;51.580;4.656;2023-04-27T08:33:53;102048.50;;;13.07;70.72
69306;BME280;56427;51.580;4.656;2023-04-27T08:36:22;102040.34;;;12.77;69.80
69306;BME280;56427;51.580;4.656;2023-04-27T08:38:52;102041.75;;;12.81;67.77
69306;BME280;56427;51.580;4.656;2023-04-27T08:41:21;102048.94;;;12.42;71.30
69306;BME280;56427;51.580;4.656;2023-04-27T08:43:47;102047.28;;;11.78;73.57
69306;BME280;56427;51.580;4.656;2023-04-27T08:46:21;102046.75;;;12.84;71.91
69306;BME280;56427;51.580;4.656;2023-04-27T08:48:52;102053.78;;;12.22;69.69
69306;BME280;56427;51.580;4.656;2023-04-27T08:51:18;102045.22;;;12.57;73.04
69306;BME280;56427;51.580;4.656;2023-04-27T08:53:54;102049.25;;;12.85;75.02
69306;BME280;56427;51.580;4.656;2023-04-27T08:56:21;102051.56;;;13.01;69.28
69306;BME280;56427;51.580;4.656;2023-04-27T08:58:51;102040.41;;;12.64;67.64
69306;BME280;56427;51.580;4.656;2023-04-27T09:01:17;102047.66;;;12.10;70.78
69306;BME280;56427;51.580;4.656;2023-04-27T09:03:43;102045.19;;;13.17;68.60
69306;BME280;56427;51.580;4.656;2023-04-27T09:06:11;102040.09;;;13.62;63.30
69306;BME280;56427;51.580;4.656;2023-04-27T09:08:49;102048.00;;;12.67;64.19
69306;BME280;56427;51.580;4.656;2023-04-27T09:11:31;102035.72;;;12.08;70.62
69306;BME280;56427;51.580;4.656;2023-04-27T09:14:01;102042.00;;;12.78;67.20
69306;BME280;56427;51.580;4.656;2023-04-27T09:16:28;102035.28;;;12.38;67.22
69306;BME280;56427;51.580;4.656;2023-04-27T09:18:56;102038.44;;;12.55;67.48
69306;BME280;56427;51.580;4.656;2023-04-27T09:21:26;102032.19;;;12.81;63.87
69306;BME280;56427;51.580;4.656;2023-04-27T09:23:52;102036.88;;;12.76;65.06
69306;BME280;56427;51.580;4.656;2023-04-27T09:26:20;102039.97;;;13.17;60.40
69306;BME280;56427;51.580;4.656;2023-04-27T09:28:48;102035.44;;;13.43;63.74
69306;BME280;56427;51.580;4.656;2023-04-27T09:31:14;102030.34;;;13.41;62.75
69306;BME280;56427;51.580;4.656;2023-04-27T09:33:39;102038.66;;;14.03;62.93
69306;BME280;56427;51.580;4.656;2023-04-27T09:36:05;102030.19;;;14.11;59.27
69306;BME280;56427;51.580;4.656;2023-04-27T09:38:32;102029.59;;;14.18;58.11
69306;BME280;56427;51.580;4.656;2023-04-27T09:40:58;102022.88;;;13.71;55.65
69306;BME280;56427;51.580;4.656;2023-04-27T09:43:24;102023.22;;;14.00;56.80
69306;BME280;56427;51.580;4.656;2023-04-27T09:45:52;102030.38;;;13.87;57.57
69306;BME280;56427;51.580;4.656;2023-04-27T09:48:20;102017.13;;;14.22;55.81
69306;BME280;56427;51.580;4.656;2023-04-27T09:50:47;102029.91;;;14.80;56.08
69306;BME280;56427;51.580;4.656;2023-04-27T09:53:16;102029.66;;;13.62;55.53
69306;BME280;56427;51.580;4.656;2023-04-27T09:55:53;102027.63;;;13.54;59.10
69306;BME280;56427;51.580;4.656;2023-04-27T09:58:43;102033.91;;;13.97;54.73
69306;BME280;56427;51.580;4.656;2023-04-27T10:01:23;102027.47;;;14.01;53.27
69306;BME280;56427;51.580;4.656;2023-04-27T10:07:11;102038.31;;;14.40;52.86
69306;BME280;56427;51.580;4.656;2023-04-27T10:09:40;102024.97;;;15.08;54.96
69306;BME280;56427;51.580;4.656;2023-04-27T10:12:31;102029.38;;;14.86;51.06
69306;BME280;56427;51.580;4.656;2023-04-27T10:15:13;102026.28;;;14.60;52.77
69306;BME280;56427;51.580;4.656;2023-04-27T10:17:47;102019.09;;;13.64;53.47
69306;BME280;56427;51.580;4.656;2023-04-27T10:20:13;102024.44;;;13.62;53.55
69306;BME280;56427;51.580;4.656;2023-04-27T10:22:46;102016.97;;;13.80;50.01
69306;BME280;56427;51.580;4.656;2023-04-27T10:27:55;102012.78;;;14.11;52.64
69306;BME280;56427;51.580;4.656;2023-04-27T10:30:25;102010.00;;;13.11;51.25
69306;BME280;56427;51.580;4.656;2023-04-27T10:32:56;101996.63;;;13.27;52.21
69306;BME280;56427;51.580;4.656;2023-04-27T10:35:34;102003.91;;;13.69;53.54
69306;BME280;56427;51.580;4.656;2023-04-27T10:38:14;101997.63;;;13.71;52.75
69306;BME280;56427;51.580;4.656;2023-04-27T10:40:43;101976.75;;;13.83;50.86
69306;BME280;56427;51.580;4.656;2023-04-27T10:43:13;101966.66;;;14.33;50.94
69306;BME280;56427;51.580;4.656;2023-04-27T10:45:41;101979.31;;;13.15;50.26
69306;BME280;56427;51.580;4.656;2023-04-27T10:48:07;101979.41;;;13.49;49.65
69306;BME280;56427;51.580;4.656;2023-04-27T10:50:34;101986.47;;;13.24;50.93
69306;BME280;56427;51.580;4.656;2023-04-27T10:55:27;101984.69;;;14.57;47.91
69306;BME280;56427;51.580;4.656;2023-04-27T10:57:53;101977.72;;;13.82;49.19
69306;BME280;56427;51.580;4.656;2023-04-27T11:00:33;101976.03;;;13.92;52.27
69306;BME280;56427;51.580;4.656;2023-04-27T11:03:16;101981.84;;;13.50;49.76
69306;BME280;56427;51.580;4.656;2023-04-27T11:05:44;101982.81;;;13.72;47.39
69306;BME280;56427;51.580;4.656;2023-04-27T11:08:15;101990.16;;;13.67;46.93
69306;BME280;56427;51.580;4.656;2023-04-27T11:10:51;101977.09;;;13.21;49.46
69306;BME280;56427;51.580;4.656;2023-04-27T11:13:22;101980.00;;;14.07;50.04
69306;BME280;56427;51.580;4.656;2023-04-27T11:15:50;101972.19;;;13.96;49.40
69306;BME280;56427;51.580;4.656;2023-04-27T11:18:17;101961.63;;;14.09;47.48
69306;BME280;56427;51.580;4.656;2023-04-27T11:20:51;101970.50;;;14.50;48.08
69306;BME280;56427;51.580;4.656;2023-04-27T11:23:28;101962.94;;;14.35;47.31
69306;BME280;56427;51.580;4.656;2023-04-27T11:25:55;101959.94;;;14.08;46.03
69306;BME280;56427;51.580;4.656;2023-04-27T11:28:24;101956.50;;;14.51;45.72
69306;BME280;56427;51.580;4.656;2023-04-27T11:30:59;101962.22;;;14.77;45.95
69306;BME280;56427;51.580;4.656;2023-04-27T11:33:26;101969.13;;;14.67;46.40
69306;BME280;56427;51.580;4.656;2023-04-27T11:35:51;101962.38;;;14.64;47.03
69306;BME280;56427;51.580;4.656;2023-04-27T11:38:20;101957.22;;;14.95;46.72
69306;BME280;56427;51.580;4.656;2023-04-27T11:40:46;101956.97;;;14.77;47.12
69306;BME280;56427;51.580;4.656;2023-04-27T11:43:24;101948.56;;;14.41;44.96
69306;BME280;56427;51.580;4.656;2023-04-27T11:45:50;101947.94;;;14.49;48.71
69306;BME280;56427;51.580;4.656;2023-04-27T11:48:15;101938.47;;;14.48;43.83
69306;BME280;56427;51.580;4.656;2023-04-27T11:50:45;101946.78;;;14.74;47.21
69306;BME280;56427;51.580;4.656;2023-04-27T11:53:12;101941.38;;;14.54;46.39
69306;BME280;56427;51.580;4.656;2023-04-27T11:55:37;101938.38;;;14.38;46.26
69306;BME280;56427;51.580;4.656;2023-04-27T11:58:05;101935.56;;;14.62;45.14
69306;BME280;56427;51.580;4.656;2023-04-27T12:00:31;101935.47;;;14.95;46.11
69306;BME280;56427;51.580;4.656;2023-04-27T12:02:57;101939.44;;;14.35;46.43
69306;BME280;56427;51.580;4.656;2023-04-27T12:05:22;101928.63;;;14.08;46.23
69306;BME280;56427;51.580;4.656;2023-04-27T12:07:47;101934.91;;;13.28;45.02
69306;BME280;56427;51.580;4.656;2023-04-27T12:10:13;101934.53;;;13.77;47.37
69306;BME280;56427;51.580;4.656;2023-04-27T12:12:38;101934.63;;;14.52;48.24
69306;BME280;56427;51.580;4.656;2023-04-27T12:15:04;101919.97;;;14.72;49.29
69306;BME280;56427;51.580;4.656;2023-04-27T12:17:31;101937.22;;;14.63;47.40
69306;BME280;56427;51.580;4.656;2023-04-27T12:19:56;101913.19;;;14.90;44.44
69306;BME280;56427;51.580;4.656;2023-04-27T12:22:22;101937.53;;;14.91;49.97
69306;BME280;56427;51.580;4.656;2023-04-27T12:24:47;101931.16;;;14.84;45.52
69306;BME280;56427;51.580;4.656;2023-04-27T12:27:13;101930.91;;;14.66;45.75
69306;BME280;56427;51.580;4.656;2023-04-27T12:29:38;101927.75;;;14.51;44.66
69306;BME280;56427;51.580;4.656;2023-04-27T12:32:04;101929.16;;;14.55;44.70
69306;BME280;56427;51.580;4.656;2023-04-27T12:34:31;101920.41;;;15.08;43.35
69306;BME280;56427;51.580;4.656;2023-04-27T12:36:56;101922.38;;;14.64;45.24
69306;BME280;56427;51.580;4.656;2023-04-27T12:39:22;101926.25;;;14.37;44.72
69306;BME280;56427;51.580;4.656;2023-04-27T12:41:52;101910.75;;;14.78;45.38
69306;BME280;56427;51.580;4.656;2023-04-27T12:44:19;101905.25;;;15.02;44.75
69306;BME280;56427;51.580;4.656;2023-04-27T12:46:45;101908.28;;;14.76;44.07
69306;BME280;56427;51.580;4.656;2023-04-27T12:49:12;101907.69;;;14.94;43.25
69306;BME280;56427;51.580;4.656;2023-04-27T12:51:38;101912.00;;;14.41;44.05
69306;BME280;56427;51.580;4.656;2023-04-27T12:54:04;101908.72;;;15.12;42.06
69306;BME280;56427;51.580;4.656;2023-04-27T12:56:30;101901.72;;;15.13;41.69